Time;durP1;ratioP1;P1;durP2;ratioP2;P2;SDS_P1;SDS_P2;PMS_P1;PMS_P2;Temp;Humidity;BMP_temperature;BMP_pressure;BME280_temperature;BME280_humidity;BME280_pressure;Samples;Min_cycle;Max_cycle;Signal;HPM_P1;HPM_P2
2023/08/04 00:00:54;;;;;;;1.70;1.60;;;;;;;;;;5091779;28;20710;-65
2023/08/04 00:03:22;;;;;;;5.23;1.40;;;;;;;;;;5093399;28;21170;-65
2023/08/04 00:05:50;;;;;;;4.13;1.70;;;;;;;;;;5093650;28;20632;-65
2023/08/04 00:08:20;;;;;;;1.87;1.40;;;;;;;;;;5092372;28;20603;-63
2023/08/04 00:10:48;;;;;;;6.67;1.90;;;;;;;;;;5073928;28;20636;-64
2023/08/04 00:13:16;;;;;;;9.83;1.90;;;;;;;;;;5085384;28;20658;-65
2023/08/04 00:15:44;;;;;;;1.93;1.50;;;;;;;;;;5093835;28;20615;-65
2023/08/04 00:18:13;;;;;;;2.00;1.63;;;;;;;;;;5094111;28;20679;-65
2023/08/04 00:20:41;;;;;;;3.70;1.70;;;;;;;;;;5095212;28;20648;-63
2023/08/04 00:23:09;;;;;;;3.10;1.87;;;;;;;;;;5093911;28;20588;-63
2023/08/04 00:25:38;;;;;;;3.13;1.50;;;;;;;;;;5076801;28;20584;-64
2023/08/04 00:28:07;;;;;;;2.20;1.47;;;;;;;;;;5090180;28;20695;-64
2023/08/04 00:30:35;;;;;;;7.17;1.67;;;;;;;;;;5074222;28;21061;-66
2023/08/04 00:33:03;;;;;;;2.13;1.40;;;;;;;;;;5093470;28;21155;-64
2023/08/04 00:35:31;;;;;;;1.77;1.67;;;;;;;;;;5094888;28;20711;-64
2023/08/04 00:37:59;;;;;;;4.03;1.70;;;;;;;;;;5093851;28;20600;-64
2023/08/04 00:40:29;;;;;;;4.00;1.80;;;;;;;;;;5091930;28;20597;-64
2023/08/04 00:43:00;;;;;;;4.07;1.73;;;;;;;;;;5074847;28;21037;-65
2023/08/04 00:45:30;;;;;;;3.50;1.70;;;;;;;;;;5074397;28;20564;-65
2023/08/04 00:47:59;;;;;;;5.00;2.23;;;;;;;;;;5074093;28;20620;-65
2023/08/04 00:50:28;;;;;;;2.43;1.67;;;;;;;;;;5076853;28;20660;-64
2023/08/04 00:52:56;;;;;;;3.23;1.20;;;;;;;;;;5060133;28;20594;-65
2023/08/04 00:55:26;;;;;;;2.37;1.30;;;;;;;;;;5077980;28;20712;-65
2023/08/04 00:57:56;;;;;;;1.50;1.40;;;;;;;;;;5050462;28;20632;-64
2023/08/04 01:00:26;;;;;;;3.10;1.40;;;;;;;;;;5081047;28;20611;-66
2023/08/04 01:02:54;;;;;;;1.90;1.70;;;;;;;;;;5099698;28;20700;-65
2023/08/04 01:05:27;;;;;;;4.50;1.93;;;;;;;;;;5099803;28;20700;-65
2023/08/04 01:08:01;;;;;;;10.13;2.30;;;;;;;;;;5082377;28;20584;-69
2023/08/04 01:10:32;;;;;;;3.43;1.87;;;;;;;;;;5099576;28;20745;-65
2023/08/04 01:13:02;;;;;;;1.87;1.47;;;;;;;;;;5089829;28;20621;-66
2023/08/04 01:15:32;;;;;;;6.40;1.70;;;;;;;;;;5099711;28;20692;-65
2023/08/04 01:18:00;;;;;;;2.00;1.57;;;;;;;;;;5100644;28;20664;-65
2023/08/04 01:20:30;;;;;;;2.90;1.73;;;;;;;;;;5099829;28;20695;-64
2023/08/04 01:22:59;;;;;;;4.67;1.80;;;;;;;;;;5100575;28;20696;-64
2023/08/04 01:25:29;;;;;;;2.03;1.27;;;;;;;;;;5098944;28;20807;-64
2023/08/04 01:27:58;;;;;;;2.80;2.37;;;;;;;;;;5100367;28;20680;-65
2023/08/04 01:30:28;;;;;;;2.10;1.30;;;;;;;;;;5099462;28;20625;-65
2023/08/04 01:32:56;;;;;;;2.40;1.40;;;;;;;;;;5099728;28;20700;-65
2023/08/04 01:35:25;;;;;;;2.70;1.70;;;;;;;;;;5099119;28;20685;-67
2023/08/04 01:37:53;;;;;;;5.40;1.90;;;;;;;;;;5100127;28;20704;-65
2023/08/04 01:40:23;;;;;;;6.83;1.90;;;;;;;;;;5100210;28;20720;-65
2023/08/04 01:42:51;;;;;;;3.47;1.70;;;;;;;;;;5099890;28;20699;-64
2023/08/04 01:45:21;;;;;;;4.03;1.90;;;;;;;;;;5063632;28;21014;-65
2023/08/04 01:47:51;;;;;;;2.30;1.40;;;;;;;;;;5100133;28;20646;-64
2023/08/04 01:50:20;;;;;;;2.70;1.50;;;;;;;;;;5099717;28;20704;-64
2023/08/04 01:52:48;;;;;;;1.97;1.70;;;;;;;;;;5080213;28;20724;-65
2023/08/04 01:55:16;;;;;;;2.80;1.60;;;;;;;;;;5099065;28;20703;-64
2023/08/04 01:57:47;;;;;;;2.90;2.03;;;;;;;;;;5098796;28;20737;-66
2023/08/04 02:00:16;;;;;;;2.00;1.80;;;;;;;;;;5098561;28;21197;-68
2023/08/04 02:02:44;;;;;;;2.50;1.77;;;;;;;;;;5097270;28;20712;-64
2023/08/04 02:05:13;;;;;;;5.90;2.47;;;;;;;;;;5097218;28;20720;-66
2023/08/04 02:07:42;;;;;;;2.67;1.70;;;;;;;;;;5080742;28;20667;-64
2023/08/04 02:10:10;;;;;;;3.93;1.60;;;;;;;;;;5099938;28;20758;-64
2023/08/04 02:12:39;;;;;;;1.73;1.63;;;;;;;;;;5096445;28;20665;-64
2023/08/04 02:15:09;;;;;;;5.40;1.97;;;;;;;;;;5087562;28;20724;-65
2023/08/04 02:17:37;;;;;;;3.47;1.60;;;;;;;;;;5095582;28;20636;-65
2023/08/04 02:20:06;;;;;;;2.60;1.40;;;;;;;;;;5099605;28;21109;-64
2023/08/04 02:22:35;;;;;;;1.83;1.73;;;;;;;;;;5082206;28;20717;-65
2023/08/04 02:25:03;;;;;;;2.30;1.80;;;;;;;;;;5098179;28;20724;-64
2023/08/04 02:27:31;;;;;;;3.30;1.63;;;;;;;;;;5098089;28;20712;-64
2023/08/04 02:29:59;;;;;;;1.50;1.40;;;;;;;;;;5099019;28;21036;-65
2023/08/04 02:32:29;;;;;;;9.80;1.83;;;;;;;;;;5098204;28;20740;-65
2023/08/04 02:34:57;;;;;;;4.33;1.73;;;;;;;;;;5081090;28;21284;-66
2023/08/04 02:37:26;;;;;;;2.70;1.87;;;;;;;;;;5098176;28;20696;-66
2023/08/04 02:39:55;;;;;;;6.13;1.53;;;;;;;;;;5099347;28;20689;-66
2023/08/04 02:42:24;;;;;;;4.10;1.90;;;;;;;;;;5098835;28;20682;-66
2023/08/04 02:44:54;;;;;;;9.93;1.90;;;;;;;;;;5099273;28;20651;-65
2023/08/04 02:47:22;;;;;;;1.50;1.30;;;;;;;;;;5078441;28;21017;-65
2023/08/04 02:49:52;;;;;;;1.80;1.50;;;;;;;;;;5078493;28;20685;-65
2023/08/04 02:52:22;;;;;;;5.67;1.50;;;;;;;;;;5078299;28;21100;-65
2023/08/04 02:54:49;;;;;;;1.90;1.63;;;;;;;;;;5077954;28;20696;-66
2023/08/04 02:57:18;;;;;;;2.20;1.70;;;;;;;;;;5079624;28;20621;-65
2023/08/04 02:59:46;;;;;;;3.47;1.77;;;;;;;;;;5083015;28;20741;-66
2023/08/04 03:02:14;;;;;;;3.53;1.70;;;;;;;;;;5088210;28;20617;-66
2023/08/04 03:04:42;;;;;;;2.57;1.47;;;;;;;;;;5097221;28;20609;-66
2023/08/04 03:07:11;;;;;;;3.33;1.57;;;;;;;;;;5098174;28;20709;-65
2023/08/04 03:09:39;;;;;;;3.40;1.67;;;;;;;;;;5097663;28;20637;-66
2023/08/04 03:12:07;;;;;;;2.03;1.57;;;;;;;;;;5080849;28;20732;-66
2023/08/04 03:14:35;;;;;;;3.63;1.90;;;;;;;;;;5098209;28;20629;-66
2023/08/04 03:17:04;;;;;;;3.20;1.30;;;;;;;;;;5099409;28;20742;-65
2023/08/04 03:19:31;;;;;;;2.70;1.60;;;;;;;;;;5098147;28;21253;-66
2023/08/04 03:21:59;;;;;;;1.60;1.50;;;;;;;;;;5099911;28;20592;-65
2023/08/04 03:24:29;;;;;;;1.80;1.70;;;;;;;;;;5099006;28;21032;-66
2023/08/04 03:26:57;;;;;;;2.60;2.10;;;;;;;;;;5100228;28;20588;-66
2023/08/04 03:29:25;;;;;;;4.20;2.17;;;;;;;;;;5092094;28;20638;-68
2023/08/04 03:31:53;;;;;;;2.73;1.67;;;;;;;;;;5099148;28;20661;-66
2023/08/04 03:34:21;;;;;;;3.60;2.00;;;;;;;;;;5093408;28;20689;-66
2023/08/04 03:36:49;;;;;;;3.33;1.70;;;;;;;;;;5079761;28;20693;-66
2023/08/04 03:39:17;;;;;;;1.87;1.73;;;;;;;;;;5083887;28;20699;-64
2023/08/04 03:41:46;;;;;;;3.90;2.13;;;;;;;;;;5098981;28;20607;-65
2023/08/04 03:44:14;;;;;;;2.00;1.90;;;;;;;;;;5098008;28;21237;-65
2023/08/04 03:46:43;;;;;;;1.83;1.73;;;;;;;;;;5093170;28;20708;-64
2023/08/04 03:49:11;;;;;;;3.00;1.97;;;;;;;;;;5096415;28;20659;-65
2023/08/04 03:51:39;;;;;;;4.80;2.10;;;;;;;;;;5098182;28;20635;-65
2023/08/04 03:54:07;;;;;;;4.30;1.77;;;;;;;;;;5097416;28;20708;-65
2023/08/04 03:56:35;;;;;;;3.10;1.70;;;;;;;;;;5080035;28;20708;-65
2023/08/04 03:59:07;;;;;;;2.10;1.87;;;;;;;;;;5098450;28;20605;-65
2023/08/04 04:01:36;;;;;;;4.37;2.00;;;;;;;;;;5079687;28;20620;-65
2023/08/04 04:04:04;;;;;;;6.93;2.20;;;;;;;;;;5082013;28;20738;-67
2023/08/04 04:06:33;;;;;;;3.37;2.03;;;;;;;;;;5077260;28;20713;-66
2023/08/04 04:09:02;;;;;;;2.80;1.50;;;;;;;;;;5077628;28;20716;-66
2023/08/04 04:11:30;;;;;;;5.13;1.80;;;;;;;;;;5077805;28;20710;-66
2023/08/04 04:13:58;;;;;;;3.13;2.37;;;;;;;;;;5078250;28;20701;-65
2023/08/04 04:16:30;;;;;;;3.37;1.77;;;;;;;;;;5060450;28;21103;-66
2023/08/04 04:18:58;;;;;;;2.60;1.90;;;;;;;;;;5078463;28;20674;-66
2023/08/04 04:21:26;;;;;;;2.30;1.90;;;;;;;;;;5081635;28;20678;-67
2023/08/04 04:23:54;;;;;;;1.60;1.50;;;;;;;;;;5088905;28;20747;-65
2023/08/04 04:26:23;;;;;;;5.17;2.00;;;;;;;;;;5102148;28;20708;-66
2023/08/04 04:28:51;;;;;;;2.53;2.33;;;;;;;;;;5084335;28;20724;-66
2023/08/04 04:31:19;;;;;;;2.40;2.20;;;;;;;;;;5090597;28;20681;-66
2023/08/04 04:33:49;;;;;;;4.03;2.10;;;;;;;;;;5102347;28;20801;-64
2023/08/04 04:36:17;;;;;;;2.07;1.90;;;;;;;;;;5099231;28;20670;-64
2023/08/04 04:38:45;;;;;;;5.07;2.10;;;;;;;;;;5102778;28;21050;-66
2023/08/04 04:41:13;;;;;;;2.57;1.90;;;;;;;;;;5101764;28;20651;-65
2023/08/04 04:43:42;;;;;;;2.00;1.90;;;;;;;;;;5102180;28;21200;-65
2023/08/04 04:46:10;;;;;;;4.60;2.53;;;;;;;;;;5083535;28;20682;-64
2023/08/04 04:48:38;;;;;;;1.73;1.47;;;;;;;;;;5097272;28;20708;-65
2023/08/04 04:51:08;;;;;;;3.30;1.83;;;;;;;;;;5083302;28;21309;-65
2023/08/04 04:53:36;;;;;;;6.50;2.20;;;;;;;;;;5102178;28;20736;-65
2023/08/04 04:56:04;;;;;;;4.60;2.03;;;;;;;;;;5103548;28;21057;-65
2023/08/04 04:58:32;;;;;;;2.90;1.97;;;;;;;;;;5100940;28;21355;-64
2023/08/04 05:01:04;;;;;;;2.80;2.40;;;;;;;;;;5098108;28;21290;-65
2023/08/04 05:03:32;;;;;;;2.30;2.10;;;;;;;;;;5096216;28;21230;-65
2023/08/04 05:06:01;;;;;;;1.73;1.60;;;;;;;;;;5100451;28;20677;-66
2023/08/04 05:08:30;;;;;;;4.03;2.20;;;;;;;;;;5103446;28;20716;-64
2023/08/04 05:10:58;;;;;;;1.93;1.50;;;;;;;;;;5105827;28;20698;-64
2023/08/04 05:13:27;;;;;;;1.67;1.57;;;;;;;;;;5107355;28;20688;-65
2023/08/04 05:15:55;;;;;;;3.37;2.30;;;;;;;;;;5108548;28;20656;-66
2023/08/04 05:18:23;;;;;;;1.57;1.47;;;;;;;;;;5108897;28;20633;-64
2023/08/04 05:20:51;;;;;;;7.10;2.00;;;;;;;;;;5110613;28;20641;-64
2023/08/04 05:23:20;;;;;;;1.30;1.20;;;;;;;;;;5102685;28;20626;-64
2023/08/04 05:25:49;;;;;;;2.33;1.53;;;;;;;;;;5109239;28;20660;-64
2023/08/04 05:28:21;;;;;;;9.13;1.70;;;;;;;;;;5108417;28;20606;-64
2023/08/04 05:30:50;;;;;;;5.27;2.00;;;;;;;;;;5110788;28;20625;-64
2023/08/04 05:33:18;;;;;;;4.80;1.90;;;;;;;;;;5107657;28;21004;-64
2023/08/04 05:35:47;;;;;;;3.73;1.93;;;;;;;;;;5095943;28;21050;-64
2023/08/04 05:38:15;;;;;;;4.60;2.00;;;;;;;;;;5083476;28;20745;-65
2023/08/04 05:40:44;;;;;;;5.37;2.50;;;;;;;;;;5101725;28;20746;-63
2023/08/04 05:43:14;;;;;;;2.27;2.07;;;;;;;;;;5101178;28;20696;-63
2023/08/04 05:45:42;;;;;;;3.87;2.13;;;;;;;;;;5101650;28;20684;-63
2023/08/04 05:48:12;;;;;;;1.87;1.77;;;;;;;;;;5099344;28;20693;-64
2023/08/04 05:50:42;;;;;;;4.00;1.80;;;;;;;;;;5098786;28;20747;-63
2023/08/04 05:53:11;;;;;;;1.97;1.67;;;;;;;;;;5081791;28;20713;-64
2023/08/04 05:55:39;;;;;;;2.30;2.10;;;;;;;;;;5101978;28;20704;-63
2023/08/04 05:58:07;;;;;;;4.47;2.10;;;;;;;;;;5083797;28;21061;-64
2023/08/04 06:00:37;;;;;;;5.33;2.00;;;;;;;;;;5101322;28;20688;-64
2023/08/04 06:03:05;;;;;;;1.90;1.80;;;;;;;;;;5099603;28;20708;-65
2023/08/04 06:05:34;;;;;;;3.53;2.40;;;;;;;;;;5079588;28;20701;-64
2023/08/04 06:08:02;;;;;;;2.00;1.90;;;;;;;;;;5100614;28;20692;-64
2023/08/04 06:10:30;;;;;;;4.90;2.40;;;;;;;;;;5100408;28;20664;-63
2023/08/04 06:12:59;;;;;;;3.80;2.30;;;;;;;;;;5099654;28;20759;-64
2023/08/04 06:15:27;;;;;;;8.07;2.20;;;;;;;;;;5073106;28;21060;-65
2023/08/04 06:17:56;;;;;;;2.10;1.90;;;;;;;;;;5093707;28;20710;-65
2023/08/04 06:20:25;;;;;;;2.20;2.00;;;;;;;;;;5082447;28;20629;-64
2023/08/04 06:22:53;;;;;;;5.30;2.37;;;;;;;;;;5094503;28;20697;-62
2023/08/04 06:25:21;;;;;;;5.70;1.70;;;;;;;;;;5096761;28;20704;-62
2023/08/04 06:27:50;;;;;;;2.20;2.10;;;;;;;;;;5098886;28;20681;-62
2023/08/04 06:30:19;;;;;;;2.40;2.20;;;;;;;;;;5095305;28;20704;-62
2023/08/04 06:32:47;;;;;;;4.97;2.27;;;;;;;;;;5088875;28;20748;-62
2023/08/04 06:35:17;;;;;;;2.13;2.03;;;;;;;;;;5076547;28;20720;-62
2023/08/04 06:37:45;;;;;;;3.37;2.20;;;;;;;;;;5094385;28;20681;-63
2023/08/04 06:40:17;;;;;;;2.73;2.53;;;;;;;;;;5098849;28;21508;-64
2023/08/04 06:42:45;;;;;;;6.30;3.07;;;;;;;;;;5108116;28;20625;-64
2023/08/04 06:45:13;;;;;;;3.90;2.90;;;;;;;;;;5112985;28;20645;-65
2023/08/04 06:47:41;;;;;;;5.27;2.50;;;;;;;;;;5110031;28;20629;-65
2023/08/04 06:50:10;;;;;;;3.53;2.40;;;;;;;;;;5090901;28;20630;-64
2023/08/04 06:52:39;;;;;;;2.30;2.10;;;;;;;;;;5108218;28;20636;-64
2023/08/04 06:55:08;;;;;;;3.20;2.50;;;;;;;;;;5083384;28;20720;-63
2023/08/04 06:57:36;;;;;;;2.10;2.00;;;;;;;;;;5095815;28;21078;-64
2023/08/04 07:00:05;;;;;;;2.50;2.30;;;;;;;;;;5096760;28;20710;-63
2023/08/04 07:02:33;;;;;;;3.43;2.37;;;;;;;;;;5076741;28;20632;-63
2023/08/04 07:05:03;;;;;;;4.17;2.60;;;;;;;;;;5098897;28;20720;-64
2023/08/04 07:07:31;;;;;;;2.93;2.67;;;;;;;;;;5102071;28;21189;-63
2023/08/04 07:10:01;;;;;;;2.60;2.50;;;;;;;;;;5102109;28;20785;-63
2023/08/04 07:12:29;;;;;;;4.50;2.00;;;;;;;;;;5098840;28;20704;-65
2023/08/04 07:14:57;;;;;;;2.83;2.00;;;;;;;;;;5097422;28;20671;-63
2023/08/04 07:17:25;;;;;;;5.00;2.67;;;;;;;;;;5070843;28;21297;-65
2023/08/04 07:19:54;;;;;;;3.10;2.77;;;;;;;;;;5098558;28;20786;-64
2023/08/04 07:22:22;;;;;;;4.90;2.30;;;;;;;;;;5099311;28;20719;-63
2023/08/04 07:24:53;;;;;;;3.43;2.33;;;;;;;;;;5100137;28;20689;-65
2023/08/04 07:27:22;;;;;;;2.63;2.37;;;;;;;;;;5101415;28;20659;-63
2023/08/04 07:29:51;;;;;;;12.77;2.67;;;;;;;;;;5120551;28;20697;-63
2023/08/04 07:32:19;;;;;;;3.13;2.37;;;;;;;;;;5108687;28;20693;-63
2023/08/04 07:34:47;;;;;;;5.30;2.60;;;;;;;;;;5090026;28;20680;-63
2023/08/04 07:37:15;;;;;;;3.20;2.13;;;;;;;;;;5098373;28;21249;-63
2023/08/04 07:39:44;;;;;;;2.37;2.17;;;;;;;;;;5095189;28;20656;-63
2023/08/04 07:42:12;;;;;;;1.70;1.60;;;;;;;;;;5096367;28;20959;-64
2023/08/04 07:44:41;;;;;;;3.00;2.17;;;;;;;;;;5083140;28;20618;-63
2023/08/04 07:47:10;;;;;;;2.70;2.33;;;;;;;;;;5092043;28;21063;-63
2023/08/04 07:49:38;;;;;;;4.63;2.90;;;;;;;;;;5095148;28;20708;-63
2023/08/04 07:52:07;;;;;;;2.70;1.83;;;;;;;;;;5096312;28;20708;-63
2023/08/04 07:54:35;;;;;;;2.30;1.63;;;;;;;;;;5094648;28;21324;-64
2023/08/04 07:57:03;;;;;;;4.27;2.80;;;;;;;;;;5095267;28;20977;-63
2023/08/04 07:59:31;;;;;;;2.70;1.97;;;;;;;;;;5093854;28;20712;-63
2023/08/04 08:02:01;;;;;;;2.27;1.80;;;;;;;;;;5089199;28;20628;-63
2023/08/04 08:04:29;;;;;;;3.57;2.30;;;;;;;;;;5098836;28;20713;-63
2023/08/04 08:06:57;;;;;;;3.43;2.40;;;;;;;;;;5095328;28;20697;-64
2023/08/04 08:09:26;;;;;;;4.27;2.23;;;;;;;;;;5092988;28;20679;-63
2023/08/04 08:11:54;;;;;;;3.17;2.40;;;;;;;;;;5099089;28;21302;-66
2023/08/04 08:14:22;;;;;;;2.70;2.50;;;;;;;;;;5097197;28;20715;-65
2023/08/04 08:16:51;;;;;;;2.30;2.20;;;;;;;;;;5098840;28;20696;-64
2023/08/04 08:19:20;;;;;;;2.67;2.47;;;;;;;;;;5097894;28;21254;-64
2023/08/04 08:21:48;;;;;;;2.07;1.77;;;;;;;;;;5079692;28;20680;-65
2023/08/04 08:24:16;;;;;;;5.27;2.70;;;;;;;;;;5066485;28;20596;-62
2023/08/04 08:26:45;;;;;;;2.50;2.40;;;;;;;;;;5098446;28;20723;-62
2023/08/04 08:29:13;;;;;;;2.10;2.00;;;;;;;;;;5096894;28;20704;-62
2023/08/04 08:31:41;;;;;;;3.00;2.70;;;;;;;;;;5098609;28;21022;-61
2023/08/04 08:34:09;;;;;;;2.90;2.60;;;;;;;;;;5096856;28;20747;-65
2023/08/04 08:36:39;;;;;;;2.50;2.33;;;;;;;;;;5099332;28;20713;-64
2023/08/04 08:39:07;;;;;;;2.83;2.63;;;;;;;;;;5098298;28;21109;-63
2023/08/04 08:41:38;;;;;;;3.20;3.00;;;;;;;;;;5095800;28;20705;-64
2023/08/04 08:44:06;;;;;;;3.73;3.47;;;;;;;;;;5101408;28;20716;-63
2023/08/04 08:46:35;;;;;;;8.60;5.17;;;;;;;;;;5091275;28;20737;-65
2023/08/04 08:49:03;;;;;;;5.13;4.77;;;;;;;;;;5090885;28;20713;-64
2023/08/04 08:51:32;;;;;;;5.73;5.23;;;;;;;;;;5092740;28;21178;-62
2023/08/04 08:54:02;;;;;;;5.60;5.20;;;;;;;;;;5092971;28;20748;-65
2023/08/04 08:56:30;;;;;;;6.50;5.87;;;;;;;;;;5096427;28;20696;-63
2023/08/04 08:58:58;;;;;;;7.70;6.57;;;;;;;;;;5099343;28;20652;-67
2023/08/04 09:01:26;;;;;;;6.47;5.87;;;;;;;;;;5112045;28;20633;-67
2023/08/04 09:03:55;;;;;;;7.43;6.43;;;;;;;;;;5110002;28;20661;-67
2023/08/04 09:06:23;;;;;;;8.03;7.23;;;;;;;;;;5110756;28;20620;-67
2023/08/04 09:08:51;;;;;;;7.20;6.50;;;;;;;;;;5110514;28;20604;-69
2023/08/04 09:11:21;;;;;;;9.67;6.93;;;;;;;;;;5111406;28;20704;-67
2023/08/04 09:13:49;;;;;;;7.60;6.80;;;;;;;;;;5118655;28;20623;-67
2023/08/04 09:16:18;;;;;;;7.67;6.10;;;;;;;;;;5112791;28;20619;-68
2023/08/04 09:18:46;;;;;;;8.13;6.00;;;;;;;;;;5112886;28;20657;-66
2023/08/04 09:21:15;;;;;;;7.10;6.57;;;;;;;;;;5109593;28;21531;-65
2023/08/04 09:23:45;;;;;;;9.93;7.00;;;;;;;;;;5110623;28;20672;-66
2023/08/04 09:26:13;;;;;;;8.70;6.57;;;;;;;;;;5110964;28;20741;-67
2023/08/04 09:28:42;;;;;;;6.40;5.33;;;;;;;;;;5108840;28;20619;-65
2023/08/04 09:31:12;;;;;;;6.47;5.87;;;;;;;;;;5108032;28;20693;-65
2023/08/04 09:33:41;;;;;;;9.07;6.57;;;;;;;;;;5106076;28;20652;-66
2023/08/04 09:36:11;;;;;;;9.33;7.90;;;;;;;;;;5111782;28;20685;-65
2023/08/04 09:38:39;;;;;;;6.50;6.00;;;;;;;;;;5107471;28;21225;-65
2023/08/04 09:41:08;;;;;;;6.83;6.23;;;;;;;;;;5107729;28;20643;-66
2023/08/04 09:43:38;;;;;;;6.47;5.97;;;;;;;;;;5108213;28;20659;-64
2023/08/04 09:46:08;;;;;;;8.23;7.30;;;;;;;;;;5102358;28;20704;-64
2023/08/04 09:48:36;;;;;;;7.23;6.63;;;;;;;;;;5098838;28;20651;-65
2023/08/04 09:51:08;;;;;;;7.67;6.47;;;;;;;;;;5103013;28;20689;-63
2023/08/04 09:53:37;;;;;;;7.63;6.93;;;;;;;;;;5102080;28;20673;-65
2023/08/04 09:56:06;;;;;;;7.30;6.70;;;;;;;;;;5103130;28;20709;-64
2023/08/04 09:58:34;;;;;;;6.90;6.23;;;;;;;;;;5103229;28;20773;-64
2023/08/04 10:01:03;;;;;;;6.60;6.00;;;;;;;;;;5081616;28;20799;-64
2023/08/04 10:03:35;;;;;;;6.70;6.10;;;;;;;;;;5093663;28;20686;-63
2023/08/04 10:06:04;;;;;;;5.60;5.07;;;;;;;;;;5084129;28;20675;-64
2023/08/04 10:08:32;;;;;;;6.73;5.70;;;;;;;;;;5099055;28;20694;-64
2023/08/04 10:11:02;;;;;;;6.67;6.10;;;;;;;;;;5095103;28;20767;-62
2023/08/04 10:13:31;;;;;;;7.33;5.80;;;;;;;;;;5085682;28;20618;-63
2023/08/04 10:16:01;;;;;;;5.83;5.23;;;;;;;;;;5085264;28;21092;-62
2023/08/04 10:18:46;;;;;;;5.00;4.70;;;;;;;;;;5104264;28;20704;-63
2023/08/04 10:21:14;;;;;;;5.67;5.17;;;;;;;;;;5077581;28;20602;-62
2023/08/04 10:23:43;;;;;;;7.30;6.63;;;;;;;;;;5088236;28;20681;-63
2023/08/04 10:26:12;;;;;;;6.97;4.43;;;;;;;;;;5096301;28;20716;-63
2023/08/04 10:28:55;;;;;;;3.40;3.20;;;;;;;;;;5103239;28;20704;-62
2023/08/04 10:31:23;;;;;;;3.53;3.23;;;;;;;;;;5088572;28;20717;-63
2023/08/04 10:34:06;;;;;;;2.83;2.73;;;;;;;;;;5100574;28;20708;-63
2023/08/04 10:36:53;;;;;;;3.30;3.00;;;;;;;;;;5103608;28;21313;-65
2023/08/04 10:39:29;;;;;;;3.30;3.00;;;;;;;;;;5082465;28;20699;-64
2023/08/04 10:41:57;;;;;;;4.27;3.97;;;;;;;;;;5103407;28;20687;-63
2023/08/04 10:44:26;;;;;;;2.80;2.70;;;;;;;;;;5099251;28;20714;-65
2023/08/04 10:47:00;;;;;;;3.73;3.50;;;;;;;;;;5101686;28;20696;-64
2023/08/04 10:49:28;;;;;;;5.20;4.77;;;;;;;;;;5101279;28;20692;-63
2023/08/04 10:51:58;;;;;;;5.20;4.80;;;;;;;;;;5102691;28;20698;-66
2023/08/04 10:54:27;;;;;;;5.37;4.97;;;;;;;;;;5098606;28;20693;-64
2023/08/04 10:56:55;;;;;;;5.63;5.27;;;;;;;;;;5100830;28;21370;-65
2023/08/04 10:59:23;;;;;;;5.23;4.83;;;;;;;;;;5101026;28;20693;-64
2023/08/04 11:01:51;;;;;;;6.97;6.10;;;;;;;;;;5101479;28;20704;-63
2023/08/04 11:04:19;;;;;;;5.53;5.13;;;;;;;;;;5099162;28;20701;-63
2023/08/04 11:06:48;;;;;;;5.90;5.40;;;;;;;;;;5080608;28;20693;-63
2023/08/04 11:09:18;;;;;;;5.60;5.20;;;;;;;;;;5100902;28;20698;-64
2023/08/04 11:11:46;;;;;;;7.03;6.30;;;;;;;;;;5085853;28;20732;-64
2023/08/04 11:14:15;;;;;;;7.97;5.77;;;;;;;;;;5083628;28;20686;-63
2023/08/04 11:16:46;;;;;;;5.23;4.90;;;;;;;;;;5097238;28;21296;-63
2023/08/04 11:19:15;;;;;;;9.40;5.73;;;;;;;;;;5100186;28;21064;-65
2023/08/04 11:21:43;;;;;;;6.23;5.73;;;;;;;;;;5101044;28;21068;-63
2023/08/04 11:24:11;;;;;;;5.77;5.33;;;;;;;;;;5082323;28;20723;-64
2023/08/04 11:26:41;;;;;;;6.97;6.47;;;;;;;;;;5077463;28;20717;-64
2023/08/04 11:29:09;;;;;;;7.17;6.50;;;;;;;;;;5091185;28;20701;-62
2023/08/04 11:31:37;;;;;;;6.77;5.70;;;;;;;;;;5099240;28;20696;-63
2023/08/04 11:34:06;;;;;;;6.40;5.80;;;;;;;;;;5090974;28;20621;-63
2023/08/04 11:36:34;;;;;;;6.77;6.17;;;;;;;;;;5102260;28;20736;-63
2023/08/04 11:39:03;;;;;;;5.80;5.30;;;;;;;;;;5101979;28;20712;-64
2023/08/04 11:41:32;;;;;;;5.97;5.47;;;;;;;;;;5096728;28;20729;-64
2023/08/04 11:44:01;;;;;;;5.03;4.63;;;;;;;;;;5100452;28;20688;-64
2023/08/04 11:46:30;;;;;;;5.60;5.10;;;;;;;;;;5090964;28;20734;-64
2023/08/04 11:48:58;;;;;;;5.33;4.93;;;;;;;;;;5092565;28;20708;-64
2023/08/04 11:51:26;;;;;;;4.97;4.57;;;;;;;;;;5096137;28;20720;-64
2023/08/04 11:53:54;;;;;;;4.50;4.20;;;;;;;;;;5092481;28;20777;-63
2023/08/04 11:56:24;;;;;;;4.10;3.80;;;;;;;;;;5079449;28;20721;-63
2023/08/04 11:58:54;;;;;;;4.20;3.90;;;;;;;;;;5099532;28;20688;-65
2023/08/04 12:01:27;;;;;;;4.70;4.40;;;;;;;;;;5098075;28;20673;-64
2023/08/04 12:03:56;;;;;;;5.20;4.70;;;;;;;;;;5092626;28;20745;-65
2023/08/04 12:06:28;;;;;;;5.23;4.87;;;;;;;;;;5099357;28;20685;-64
2023/08/04 12:08:57;;;;;;;6.60;6.10;;;;;;;;;;5098828;28;20696;-64
2023/08/04 12:11:26;;;;;;;6.23;5.80;;;;;;;;;;5080201;28;20760;-66
2023/08/04 12:14:06;;;;;;;6.10;5.70;;;;;;;;;;5078470;28;20717;-63
2023/08/04 12:16:48;;;;;;;6.63;6.03;;;;;;;;;;5086698;28;20729;-63
2023/08/04 12:19:16;;;;;;;6.93;6.30;;;;;;;;;;5089602;28;21033;-64
2023/08/04 12:21:44;;;;;;;7.83;5.53;;;;;;;;;;5093064;28;20709;-64
2023/08/04 12:24:13;;;;;;;6.33;5.80;;;;;;;;;;5092182;28;20697;-64
2023/08/04 12:26:42;;;;;;;6.50;6.00;;;;;;;;;;5090012;28;22062;-64
2023/08/04 12:29:10;;;;;;;7.23;6.50;;;;;;;;;;5089047;28;20714;-65
2023/08/04 12:31:40;;;;;;;6.60;6.10;;;;;;;;;;5074720;28;20626;-65
2023/08/04 12:34:10;;;;;;;7.63;7.03;;;;;;;;;;5087574;28;20625;-65
2023/08/04 12:36:38;;;;;;;10.97;6.60;;;;;;;;;;5085248;28;21017;-65
2023/08/04 12:39:09;;;;;;;7.73;6.83;;;;;;;;;;5083369;28;21191;-65
2023/08/04 12:41:37;;;;;;;6.70;6.10;;;;;;;;;;5079121;28;20618;-65
2023/08/04 12:44:06;;;;;;;8.30;7.50;;;;;;;;;;5078758;28;20621;-65
2023/08/04 12:46:34;;;;;;;7.20;6.70;;;;;;;;;;5063752;28;20618;-66
2023/08/04 12:49:04;;;;;;;7.60;7.10;;;;;;;;;;5086771;28;21054;-65
2023/08/04 12:51:32;;;;;;;10.17;8.83;;;;;;;;;;5066411;28;21131;-65
2023/08/04 12:54:00;;;;;;;13.80;9.47;;;;;;;;;;5081496;28;21432;-65
2023/08/04 12:56:28;;;;;;;11.17;10.27;;;;;;;;;;5086454;28;20662;-65
2023/08/04 12:58:56;;;;;;;11.67;10.97;;;;;;;;;;5081906;28;20626;-66
2023/08/04 13:01:25;;;;;;;12.50;11.80;;;;;;;;;;5064116;28;20625;-66
2023/08/04 13:03:53;;;;;;;13.30;12.40;;;;;;;;;;5083610;28;20625;-66
2023/08/04 13:06:23;;;;;;;13.17;12.47;;;;;;;;;;5081886;28;20682;-65
2023/08/04 13:08:51;;;;;;;14.00;12.90;;;;;;;;;;5065761;28;20623;-66
2023/08/04 13:11:19;;;;;;;14.23;13.33;;;;;;;;;;5080726;28;20680;-66
2023/08/04 13:13:48;;;;;;;13.93;12.70;;;;;;;;;;5067790;28;20634;-66
2023/08/04 13:16:16;;;;;;;14.70;13.90;;;;;;;;;;5086039;28;20722;-66
2023/08/04 13:18:44;;;;;;;13.97;13.13;;;;;;;;;;5087561;28;21134;-65
2023/08/04 13:21:12;;;;;;;13.53;12.83;;;;;;;;;;5093226;28;20685;-67
2023/08/04 13:23:42;;;;;;;14.80;13.93;;;;;;;;;;5092932;28;20637;-67
2023/08/04 13:26:10;;;;;;;14.77;13.97;;;;;;;;;;5093383;28;20627;-67
2023/08/04 13:28:38;;;;;;;15.03;14.13;;;;;;;;;;5092614;28;21058;-65
2023/08/04 13:31:06;;;;;;;15.03;14.20;;;;;;;;;;5085937;28;20626;-66
2023/08/04 13:33:34;;;;;;;14.90;14.10;;;;;;;;;;5091975;28;20624;-66
2023/08/04 13:36:02;;;;;;;14.40;13.70;;;;;;;;;;5092582;28;20635;-66
2023/08/04 13:38:31;;;;;;;15.50;14.60;;;;;;;;;;5074871;28;20704;-66
2023/08/04 13:41:00;;;;;;;14.77;13.90;;;;;;;;;;5093694;28;21187;-66
2023/08/04 13:43:28;;;;;;;15.23;14.17;;;;;;;;;;5094079;28;20609;-66
2023/08/04 13:45:57;;;;;;;14.70;13.50;;;;;;;;;;5092100;28;20677;-66
2023/08/04 13:48:25;;;;;;;14.87;14.00;;;;;;;;;;5093002;28;20613;-67
2023/08/04 13:50:53;;;;;;;14.33;13.63;;;;;;;;;;5093055;28;20632;-66
2023/08/04 13:53:21;;;;;;;14.73;13.93;;;;;;;;;;5093025;28;20625;-66
2023/08/04 13:55:49;;;;;;;15.50;14.40;;;;;;;;;;5085812;28;21178;-66
2023/08/04 13:58:19;;;;;;;16.50;15.50;;;;;;;;;;5092919;28;20725;-66
2023/08/04 14:00:56;;;;;;;15.60;14.67;;;;;;;;;;5091573;28;20620;-66
2023/08/04 14:03:24;;;;;;;15.50;14.57;;;;;;;;;;5087313;28;20674;-66
2023/08/04 14:05:56;;;;;;;15.40;14.30;;;;;;;;;;5083296;28;20622;-66
2023/08/04 14:08:24;;;;;;;15.93;14.80;;;;;;;;;;5082911;28;20609;-66
2023/08/04 14:10:52;;;;;;;16.97;15.70;;;;;;;;;;5092702;28;20663;-66
2023/08/04 14:13:23;;;;;;;15.17;14.27;;;;;;;;;;5071834;28;20636;-66
2023/08/04 14:15:51;;;;;;;15.43;14.43;;;;;;;;;;5075172;28;20621;-66
2023/08/04 14:18:19;;;;;;;15.80;14.80;;;;;;;;;;5091671;28;20661;-66
2023/08/04 14:20:47;;;;;;;16.00;14.97;;;;;;;;;;5080812;28;20640;-66
2023/08/04 14:23:16;;;;;;;15.70;14.80;;;;;;;;;;5089637;28;21259;-65
2023/08/04 14:25:46;;;;;;;15.20;14.30;;;;;;;;;;5092847;28;20980;-65
2023/08/04 14:28:15;;;;;;;15.63;14.73;;;;;;;;;;5090077;28;20662;-65
2023/08/04 14:30:45;;;;;;;15.10;14.10;;;;;;;;;;5092161;28;20960;-65
2023/08/04 14:33:13;;;;;;;15.97;15.00;;;;;;;;;;5091262;28;20932;-65
2023/08/04 14:35:41;;;;;;;15.30;14.00;;;;;;;;;;5091839;28;20632;-65
2023/08/04 14:38:10;;;;;;;15.03;14.03;;;;;;;;;;5090646;28;20660;-65
2023/08/04 14:40:38;;;;;;;14.63;13.60;;;;;;;;;;5072651;28;20625;-65
2023/08/04 14:43:06;;;;;;;14.50;13.50;;;;;;;;;;5091458;28;21439;-66
2023/08/04 14:45:34;;;;;;;13.43;12.53;;;;;;;;;;5091711;28;20616;-65
2023/08/04 14:48:04;;;;;;;13.17;12.27;;;;;;;;;;5091402;28;20633;-65